Main page
METAR-TAF:

METAR-TAF

Airports :

Sumburgh Airport

Sumburgh, Shetland, Scotland

latitude: 59-53N, longitude: 001-18W, elevation: 5 m

Current weather observation

The report was made 41 minutes ago, at 08:20 UTC
Wind 12 kt from the South/Southeast
Temperature 9°C
Humidity 81%
Pressure 1037 hPa
Visibility 10 km or more

METAR: EGPB 180820Z AUTO 16012KT 9999 BKN013/// 09/06 Q1037

Time: 09:01 (09:01 UTC)

Forecast

The report was made 1 hour and 4 minutes ago, at 07:57 UTC
Forecast valid from 18 at 09 UTC to 18 at 18 UTC
Wind 15 kt from the South/Southeast
Visibility 10 km or more
Broken clouds at a height of 1200 ft
Temporary
from 18 at 09 UTC to 18 at 18 UTC
Visibility: 8000 m
Scattered clouds at a height of 1200 ft

TAF: EGPB 180757Z 1809/1818 16015KT 9999 BKN012 TEMPO 1809/1818 8000 SCT012

Weather observations and forecasts of more than 4000 airports (METAR and TAF reports).

The available stations are represented by yellow and red dots on the map.

Hover mouse over dot to see the name of the station.

Then click to see weather observations and forecasts.

To change the map : click on the green buttons with a black cross to zoom in, on the green button with a dash to zoom out, or on the green arrows for adjacent maps.


METAR-TAF: